createdAt,value
2023-04-24T00:01:26.122Z,14.90
2023-04-24T00:03:53.024Z,14.80
2023-04-24T00:06:19.857Z,14.80
2023-04-24T00:08:46.511Z,14.70
2023-04-24T00:11:13.244Z,14.70
2023-04-24T00:13:40.730Z,14.70
2023-04-24T00:16:07.626Z,14.60
2023-04-24T00:18:34.283Z,14.60
2023-04-24T00:21:01.222Z,14.60
2023-04-24T00:23:28.264Z,14.60
2023-04-24T00:25:54.939Z,14.60
2023-04-24T00:28:21.617Z,14.60
2023-04-24T00:30:48.264Z,14.60
2023-04-24T00:33:15.806Z,14.60
2023-04-24T00:35:42.625Z,14.60
2023-04-24T00:38:09.499Z,14.60
2023-04-24T00:40:36.292Z,14.60
2023-04-24T00:43:03.104Z,14.60
2023-04-24T00:45:32.241Z,14.50
2023-04-24T00:47:59.379Z,14.60
2023-04-24T00:50:27.440Z,14.60
2023-04-24T00:52:54.411Z,14.60
2023-04-24T00:55:21.298Z,14.60
2023-04-24T00:57:49.680Z,14.50
2023-04-24T01:00:17.680Z,14.30
2023-04-24T01:02:46.299Z,14.30
2023-04-24T01:05:14.537Z,14.20
2023-04-24T01:07:45.153Z,14.10
2023-04-24T01:10:13.761Z,14.10
2023-04-24T01:12:40.792Z,14.10
2023-04-24T01:15:08.205Z,14.10
2023-04-24T01:17:34.896Z,14.00
2023-04-24T01:20:02.002Z,14.00
2023-04-24T01:22:28.776Z,13.90
2023-04-24T01:24:55.740Z,13.90
2023-04-24T01:27:22.536Z,13.80
2023-04-24T01:29:50.289Z,13.70
2023-04-24T01:32:17.152Z,13.70
2023-04-24T01:34:45.646Z,13.90
2023-04-24T01:37:12.536Z,14.00
2023-04-24T01:39:39.386Z,13.60
2023-04-24T01:42:06.936Z,13.60
2023-04-24T01:44:34.627Z,13.60
2023-04-24T01:47:02.500Z,13.40
2023-04-24T01:49:29.205Z,13.40
2023-04-24T01:51:55.887Z,13.50
2023-04-24T01:54:22.697Z,13.60
2023-04-24T01:56:49.789Z,13.50
2023-04-24T01:59:17.995Z,13.40
2023-04-24T02:01:44.781Z,13.50
2023-04-24T02:04:11.792Z,13.50
2023-04-24T02:06:38.593Z,13.50
2023-04-24T02:09:05.277Z,13.50
2023-04-24T02:11:31.999Z,13.30
2023-04-24T02:13:58.970Z,13.30
2023-04-24T02:16:26.124Z,13.20
2023-04-24T02:18:52.832Z,13.20
2023-04-24T02:21:19.495Z,13.10
2023-04-24T02:23:46.181Z,13.00
2023-04-24T02:26:12.924Z,13.00
2023-04-24T02:28:39.701Z,12.90
2023-04-24T02:31:07.211Z,12.80
2023-04-24T02:33:34.417Z,12.90
2023-04-24T02:36:01.340Z,12.80
2023-04-24T02:38:28.283Z,12.80
2023-04-24T02:40:54.948Z,12.70
2023-04-24T02:43:21.855Z,12.80
2023-04-24T02:45:49.834Z,12.70
2023-04-24T02:48:16.593Z,12.70
2023-04-24T02:50:43.401Z,12.70
2023-04-24T02:53:10.039Z,12.60
2023-04-24T02:55:36.998Z,12.70
2023-04-24T02:58:03.658Z,12.70
2023-04-24T03:00:30.903Z,12.70
2023-04-24T03:02:57.949Z,12.60
2023-04-24T03:05:24.846Z,12.60
2023-04-24T03:07:53.576Z,12.60
2023-04-24T03:10:20.469Z,12.60
2023-04-24T03:12:47.325Z,12.60
2023-04-24T03:15:13.977Z,12.60
2023-04-24T03:17:40.640Z,12.60
2023-04-24T03:20:09.284Z,12.60
2023-04-24T03:22:36.181Z,12.50
2023-04-24T03:25:03.134Z,12.50
2023-04-24T03:27:29.793Z,12.50
2023-04-24T03:29:56.975Z,12.50
2023-04-24T03:32:24.149Z,12.40
2023-04-24T03:34:51.123Z,12.30
2023-04-24T03:37:17.948Z,12.40
2023-04-24T03:39:45.170Z,12.30
2023-04-24T03:42:12.341Z,12.30
2023-04-24T03:44:38.961Z,12.30
2023-04-24T03:47:05.795Z,12.20
2023-04-24T03:49:32.655Z,12.20
2023-04-24T03:51:59.312Z,12.10
2023-04-24T03:54:27.112Z,12.10
2023-04-24T03:56:53.852Z,12.10
2023-04-24T03:59:20.465Z,12.10
2023-04-24T04:01:47.351Z,12.10
2023-04-24T04:04:14.259Z,12.00
2023-04-24T04:06:41.089Z,12.00
2023-04-24T04:09:08.248Z,12.10
2023-04-24T04:11:36.455Z,11.80
2023-04-24T04:14:04.415Z,11.70
2023-04-24T04:16:31.128Z,11.70
2023-04-24T04:18:57.872Z,11.70
2023-04-24T04:21:24.685Z,11.70
2023-04-24T04:23:51.718Z,11.70
2023-04-24T04:26:20.098Z,11.70
2023-04-24T04:28:46.759Z,11.60
2023-04-24T04:31:14.283Z,11.70
2023-04-24T04:33:41.254Z,11.70
2023-04-24T04:36:08.149Z,11.70
2023-04-24T04:38:36.455Z,11.70
2023-04-24T04:41:05.752Z,11.70
2023-04-24T04:43:33.708Z,11.70
2023-04-24T04:46:01.751Z,11.70
2023-04-24T04:48:29.564Z,11.60
2023-04-24T04:50:56.335Z,12.70
2023-04-24T04:53:22.897Z,11.80
2023-04-24T04:55:56.804Z,11.80
2023-04-24T04:58:25.432Z,11.80
2023-04-24T05:00:53.205Z,11.90
2023-04-24T05:03:21.401Z,11.90
2023-04-24T05:05:48.419Z,11.80
2023-04-24T05:10:44.672Z,11.80
2023-04-24T05:13:14.067Z,11.90
2023-04-24T05:15:40.998Z,12.00
2023-04-24T05:18:07.703Z,12.00
2023-04-24T05:20:34.385Z,12.10
2023-04-24T05:23:00.997Z,12.20
2023-04-24T05:25:27.696Z,12.20
2023-04-24T05:27:57.281Z,12.20
2023-04-24T05:30:23.969Z,12.10
2023-04-24T05:32:50.612Z,12.00
2023-04-24T05:35:17.759Z,12.20
2023-04-24T05:37:44.335Z,12.30
2023-04-24T05:40:11.993Z,12.30
2023-04-24T05:42:39.373Z,12.30
2023-04-24T05:45:06.691Z,12.30
2023-04-24T05:47:33.312Z,12.30
2023-04-24T05:49:59.928Z,12.30
2023-04-24T05:52:26.671Z,12.30
2023-04-24T05:54:54.462Z,12.40
2023-04-24T05:57:21.105Z,12.40
2023-04-24T05:59:49.345Z,12.40
2023-04-24T06:02:16.031Z,12.50
2023-04-24T06:04:44.223Z,12.60
2023-04-24T06:07:12.093Z,12.50
2023-04-24T06:09:38.706Z,12.70
2023-04-24T06:12:05.452Z,12.80
2023-04-24T06:14:32.267Z,12.80
2023-04-24T06:16:59.017Z,12.70
2023-04-24T06:19:25.735Z,12.80
2023-04-24T06:21:53.368Z,12.80
2023-04-24T06:24:20.020Z,12.80
2023-04-24T06:26:51.907Z,12.80
2023-04-24T06:29:20.364Z,12.90
2023-04-24T06:31:49.508Z,12.90
2023-04-24T06:34:17.827Z,12.90
2023-04-24T06:36:48.105Z,13.00
2023-04-24T06:39:17.384Z,13.10
2023-04-24T06:41:50.731Z,13.10
2023-04-24T06:44:17.766Z,13.10
2023-04-24T06:46:44.673Z,12.90
2023-04-24T06:49:11.477Z,12.90
2023-04-24T06:51:38.117Z,13.90
2023-04-24T06:54:04.758Z,13.10
2023-04-24T06:56:32.090Z,13.10
2023-04-24T06:58:59.071Z,13.20
2023-04-24T07:01:25.806Z,13.10
2023-04-24T07:03:53.339Z,13.20
2023-04-24T07:06:22.341Z,13.30
2023-04-24T07:08:51.080Z,13.30
2023-04-24T07:11:17.741Z,13.30
2023-04-24T07:13:45.104Z,13.40
2023-04-24T07:16:12.055Z,13.50
2023-04-24T07:18:42.606Z,13.50
2023-04-24T07:21:09.214Z,13.60
2023-04-24T07:23:35.814Z,13.80
2023-04-24T07:26:02.582Z,13.60
2023-04-24T07:28:32.031Z,13.60
2023-04-24T07:31:01.499Z,13.60
2023-04-24T07:33:28.298Z,13.60
2023-04-24T07:35:55.073Z,13.60
2023-04-24T07:38:24.407Z,13.50
2023-04-24T07:40:51.034Z,13.60
2023-04-24T07:43:17.659Z,13.50
2023-04-24T07:45:44.651Z,13.50
2023-04-24T07:48:11.649Z,13.30
2023-04-24T07:50:38.320Z,13.30
2023-04-24T07:53:04.956Z,13.30
2023-04-24T07:55:32.787Z,13.40
2023-04-24T07:58:01.527Z,13.30
2023-04-24T08:00:28.192Z,13.30
2023-04-24T08:02:54.890Z,13.30
2023-04-24T08:05:24.072Z,13.30
2023-04-24T08:07:52.932Z,13.40
2023-04-24T08:10:19.844Z,13.30
2023-04-24T08:12:51.408Z,13.20
2023-04-24T08:15:18.364Z,13.20
2023-04-24T08:17:52.185Z,13.10
2023-04-24T08:20:20.692Z,13.10
2023-04-24T08:22:51.988Z,13.00
2023-04-24T08:25:20.013Z,13.10
2023-04-24T08:27:46.892Z,13.20
2023-04-24T08:30:15.563Z,13.30
2023-04-24T08:32:42.716Z,13.10
2023-04-24T08:35:13.123Z,13.10
2023-04-24T08:37:42.147Z,13.10
2023-04-24T08:40:16.608Z,13.20
2023-04-24T08:42:54.112Z,13.20
2023-04-24T08:45:21.316Z,13.00
2023-04-24T08:47:51.845Z,13.10
2023-04-24T08:50:18.517Z,13.10
2023-04-24T08:52:58.232Z,13.10
2023-04-24T08:55:25.940Z,13.10
2023-04-24T08:57:56.895Z,14.60
2023-04-24T09:00:23.606Z,13.20
2023-04-24T09:02:57.280Z,13.20
2023-04-24T09:05:28.552Z,13.10
2023-04-24T09:07:59.797Z,13.10
2023-04-24T09:10:27.382Z,13.50
2023-04-24T09:13:14.333Z,13.00
2023-04-24T09:15:43.125Z,13.00
2023-04-24T09:18:12.359Z,13.10
2023-04-24T09:20:58.190Z,13.20
2023-04-24T09:23:27.851Z,13.20
2023-04-24T09:25:58.916Z,13.30
2023-04-24T09:28:35.557Z,13.40
2023-04-24T09:31:19.187Z,13.50
2023-04-24T09:33:55.788Z,13.70
2023-04-24T09:36:39.810Z,13.60
2023-04-24T09:39:16.635Z,13.60
2023-04-24T09:41:56.581Z,13.70
2023-04-24T09:44:27.063Z,13.60
2023-04-24T09:46:55.815Z,13.60
2023-04-24T09:49:34.242Z,13.60
2023-04-24T09:52:09.052Z,13.80
2023-04-24T09:54:37.669Z,13.90
2023-04-24T09:57:05.803Z,13.80
2023-04-24T09:59:32.431Z,13.80
2023-04-24T10:02:00.683Z,13.80
2023-04-24T10:04:29.178Z,13.70
2023-04-24T10:07:00.416Z,13.50
2023-04-24T10:09:27.901Z,13.50
2023-04-24T10:11:55.830Z,13.50
2023-04-24T10:14:25.705Z,13.60
2023-04-24T10:16:57.593Z,13.90
2023-04-24T10:19:27.038Z,13.50
2023-04-24T10:21:57.365Z,13.60
2023-04-24T10:24:23.977Z,13.60
2023-04-24T10:26:52.915Z,13.50
2023-04-24T10:29:20.665Z,13.80
2023-04-24T10:31:49.696Z,13.70
2023-04-24T10:34:18.876Z,13.90
2023-04-24T10:36:57.954Z,13.90
2023-04-24T10:39:27.190Z,13.80
2023-04-24T10:41:57.410Z,13.70
2023-04-24T10:44:24.441Z,13.80
2023-04-24T10:46:57.405Z,14.00
2023-04-24T10:49:32.678Z,14.10
2023-04-24T10:52:07.985Z,14.20
2023-04-24T10:54:44.142Z,14.20
2023-04-24T10:57:27.207Z,14.20
2023-04-24T11:00:16.220Z,14.40
2023-04-24T11:02:50.116Z,14.50
2023-04-24T11:05:18.642Z,14.60
2023-04-24T11:08:14.974Z,14.60
2023-04-24T11:10:48.723Z,14.40
2023-04-24T11:13:17.161Z,14.30
2023-04-24T11:15:44.179Z,14.30
2023-04-24T11:18:18.454Z,14.10
2023-04-24T11:20:45.780Z,14.00
2023-04-24T11:23:14.773Z,13.90
2023-04-24T11:25:42.756Z,13.90
2023-04-24T11:28:17.123Z,13.80
2023-04-24T11:30:43.769Z,13.80
2023-04-24T11:33:10.565Z,13.90
2023-04-24T11:35:41.314Z,13.70
2023-04-24T11:38:22.690Z,13.70
2023-04-24T11:40:50.630Z,13.50
2023-04-24T11:43:20.266Z,13.70
2023-04-24T11:45:49.769Z,13.70
2023-04-24T11:48:22.805Z,13.90
2023-04-24T11:50:49.930Z,14.10
2023-04-24T11:53:16.702Z,14.10
2023-04-24T11:55:43.372Z,14.10
2023-04-24T11:58:10.722Z,14.20
2023-04-24T12:00:37.705Z,14.10
2023-04-24T12:03:12.539Z,14.20
2023-04-24T12:05:40.525Z,14.10
2023-04-24T12:08:09.078Z,14.00
2023-04-24T12:10:36.109Z,14.00
2023-04-24T12:13:03.004Z,14.00
2023-04-24T12:15:30.128Z,14.10
2023-04-24T12:17:57.566Z,14.00
2023-04-24T12:20:35.696Z,13.90
2023-04-24T12:23:02.825Z,13.80
2023-04-24T12:25:36.171Z,13.80
2023-04-24T12:28:05.875Z,13.90
2023-04-24T12:30:34.679Z,14.00
2023-04-24T12:33:01.874Z,14.20
2023-04-24T12:35:32.818Z,14.20
2023-04-24T12:38:17.477Z,14.20
2023-04-24T12:40:44.533Z,14.40
2023-04-24T12:43:21.500Z,14.20
2023-04-24T12:45:48.989Z,14.00
2023-04-24T12:48:15.747Z,14.10
2023-04-24T12:50:45.430Z,14.30
2023-04-24T12:53:12.981Z,14.20
2023-04-24T12:55:42.295Z,13.90
2023-04-24T12:58:09.175Z,13.70
2023-04-24T13:00:37.899Z,13.80
2023-04-24T13:03:07.369Z,13.60
2023-04-24T13:05:34.061Z,13.50
2023-04-24T13:08:00.848Z,13.50
2023-04-24T13:10:27.442Z,13.70
2023-04-24T13:12:54.132Z,13.50
2023-04-24T13:15:20.994Z,13.30
2023-04-24T13:17:49.404Z,13.00
2023-04-24T13:20:16.075Z,12.70
2023-04-24T13:22:42.663Z,12.40
2023-04-24T13:25:10.055Z,12.40
2023-04-24T13:27:36.858Z,12.40
2023-04-24T13:30:05.179Z,12.40
2023-04-24T13:32:32.937Z,12.30
2023-04-24T13:35:00.421Z,12.10
2023-04-24T13:37:29.018Z,12.20
2023-04-24T13:39:57.351Z,12.20
2023-04-24T13:42:24.053Z,12.20
2023-04-24T13:44:51.907Z,12.30
2023-04-24T13:47:20.489Z,12.20
2023-04-24T13:49:47.045Z,12.30
2023-04-24T13:52:13.696Z,12.30
2023-04-24T13:54:40.305Z,12.50
2023-04-24T13:57:06.945Z,12.40
2023-04-24T13:59:33.752Z,12.40
2023-04-24T14:02:00.453Z,12.50
2023-04-24T14:04:29.025Z,12.60
2023-04-24T14:06:55.886Z,12.70
2023-04-24T14:09:23.782Z,12.70
2023-04-24T14:11:52.281Z,12.60
2023-04-24T14:14:18.911Z,12.60
2023-04-24T14:16:45.507Z,12.60
2023-04-24T14:19:13.478Z,12.60
2023-04-24T14:21:40.306Z,12.70
2023-04-24T14:24:08.980Z,12.60
2023-04-24T14:26:35.853Z,12.50
2023-04-24T14:31:32.052Z,12.60
2023-04-24T14:33:58.714Z,12.60
2023-04-24T14:36:25.327Z,12.50
2023-04-24T14:38:51.950Z,12.10
2023-04-24T14:41:19.944Z,12.00
2023-04-24T14:43:46.738Z,11.90
2023-04-24T14:46:13.576Z,11.70
2023-04-24T14:48:40.386Z,11.50
2023-04-24T14:51:07.218Z,11.60
2023-04-24T14:53:34.919Z,11.50
2023-04-24T14:56:01.474Z,11.50
2023-04-24T14:58:28.126Z,11.50
2023-04-24T15:00:57.250Z,11.40
2023-04-24T15:03:26.972Z,11.40
2023-04-24T15:05:53.809Z,11.40
2023-04-24T15:08:20.523Z,11.30
2023-04-24T15:10:47.938Z,11.30
2023-04-24T15:13:14.691Z,11.30
2023-04-24T15:15:43.276Z,11.20
2023-04-24T15:18:12.452Z,11.20
2023-04-24T15:20:44.112Z,11.10
2023-04-24T15:23:11.287Z,10.90
2023-04-24T15:25:40.077Z,10.80
2023-04-24T15:28:07.118Z,10.70
2023-04-24T15:30:37.786Z,10.40
2023-04-24T15:33:04.531Z,10.20
2023-04-24T15:35:31.296Z,10.10
2023-04-24T15:37:58.061Z,9.90
2023-04-24T15:40:27.073Z,10.10
2023-04-24T15:42:53.779Z,9.80
2023-04-24T15:45:20.648Z,9.70
2023-04-24T15:47:47.612Z,9.50
2023-04-24T15:50:16.363Z,9.50
2023-04-24T15:52:44.124Z,9.50
2023-04-24T15:55:11.313Z,9.50
2023-04-24T15:57:38.278Z,9.50
2023-04-24T16:00:10.615Z,9.50
2023-04-24T16:02:37.339Z,9.30
2023-04-24T16:05:06.453Z,9.30
2023-04-24T16:07:34.397Z,9.10
2023-04-24T16:10:02.141Z,9.00
2023-04-24T16:12:28.907Z,9.00
2023-04-24T16:14:55.597Z,8.80
2023-04-24T16:17:22.277Z,8.70
2023-04-24T16:19:48.892Z,8.60
2023-04-24T16:22:15.566Z,8.70
2023-04-24T16:24:45.498Z,9.50
2023-04-24T16:27:12.247Z,8.50
2023-04-24T16:29:38.887Z,8.40
2023-04-24T16:32:07.677Z,8.40
2023-04-24T16:34:34.554Z,8.30
2023-04-24T16:37:03.330Z,8.30
2023-04-24T16:39:29.952Z,8.30
2023-04-24T16:41:59.777Z,8.20
2023-04-24T16:44:27.369Z,8.10
2023-04-24T16:46:54.100Z,8.10
2023-04-24T16:49:20.767Z,8.00
2023-04-24T16:51:51.582Z,8.00
2023-04-24T16:54:19.730Z,8.50
2023-04-24T16:56:46.300Z,8.00
2023-04-24T16:59:13.173Z,8.10
2023-04-24T17:01:40.168Z,8.00
2023-04-24T17:04:06.960Z,8.10
2023-04-24T17:06:35.266Z,8.20
2023-04-24T17:09:02.485Z,8.20
2023-04-24T17:11:31.100Z,8.20
2023-04-24T17:13:59.553Z,8.20
2023-04-24T17:16:26.595Z,8.30
2023-04-24T17:18:53.257Z,8.30
2023-04-24T17:21:19.863Z,8.50
2023-04-24T17:23:47.085Z,8.60
2023-04-24T17:26:13.710Z,8.60
2023-04-24T17:28:42.369Z,8.60
2023-04-24T17:31:08.994Z,8.50
2023-04-24T17:33:38.362Z,8.50
2023-04-24T17:36:10.202Z,8.50
2023-04-24T17:38:37.668Z,8.60
2023-04-24T17:41:06.980Z,8.70
2023-04-24T17:43:36.384Z,8.50
2023-04-24T17:46:03.416Z,8.50
2023-04-24T17:48:30.234Z,8.60
2023-04-24T17:50:58.862Z,8.60
2023-04-24T17:53:25.418Z,8.60
2023-04-24T17:55:54.119Z,8.60
2023-04-24T17:58:22.055Z,8.60
2023-04-24T18:00:48.817Z,8.60
2023-04-24T18:03:16.991Z,8.70
2023-04-24T18:05:45.911Z,8.70
2023-04-24T18:08:12.523Z,8.70
2023-04-24T18:10:39.403Z,8.70
2023-04-24T18:13:05.991Z,8.80
2023-04-24T18:15:32.824Z,8.80
2023-04-24T18:17:59.564Z,8.70
2023-04-24T18:20:28.981Z,8.80
2023-04-24T18:22:56.335Z,8.70
2023-04-24T18:25:28.070Z,8.60
2023-04-24T18:28:03.249Z,8.60
2023-04-24T18:30:33.054Z,8.60
2023-04-24T18:32:59.868Z,8.60
2023-04-24T18:35:26.624Z,8.70
2023-04-24T18:37:54.660Z,8.70
2023-04-24T18:40:21.339Z,8.60
2023-04-24T18:42:48.845Z,8.60
2023-04-24T18:45:15.545Z,8.50
2023-04-24T18:47:42.903Z,8.50
2023-04-24T18:50:10.341Z,8.50
2023-04-24T18:52:37.038Z,8.50
2023-04-24T18:55:07.354Z,8.50
2023-04-24T18:57:36.146Z,8.50
2023-04-24T19:00:04.054Z,8.40
2023-04-24T19:02:34.892Z,8.40
2023-04-24T19:05:01.616Z,8.40
2023-04-24T19:07:29.295Z,8.50
2023-04-24T19:09:55.887Z,8.50
2023-04-24T19:12:25.794Z,8.50
2023-04-24T19:14:52.484Z,8.50
2023-04-24T19:17:24.999Z,8.50
2023-04-24T19:19:52.099Z,8.60
2023-04-24T19:22:22.430Z,8.60
2023-04-24T19:24:49.052Z,8.60
2023-04-24T19:27:19.021Z,8.50
2023-04-24T19:29:45.995Z,8.50
2023-04-24T19:32:14.461Z,8.50
2023-04-24T19:34:41.307Z,8.60
2023-04-24T19:37:10.405Z,8.60
2023-04-24T19:39:39.026Z,8.60
2023-04-24T19:42:08.367Z,8.60
2023-04-24T19:44:38.426Z,8.50
2023-04-24T19:47:05.182Z,8.50
2023-04-24T19:49:32.030Z,8.50
2023-04-24T19:51:58.647Z,8.50
2023-04-24T19:54:25.913Z,8.50
2023-04-24T19:56:52.562Z,8.40
2023-04-24T19:59:19.130Z,8.40
2023-04-24T20:01:45.904Z,8.40
2023-04-24T20:04:14.617Z,8.50
2023-04-24T20:06:41.304Z,8.40
2023-04-24T20:09:07.891Z,8.50
2023-04-24T20:11:34.581Z,8.50
2023-04-24T20:14:04.028Z,8.50
2023-04-24T20:16:31.246Z,8.50
2023-04-24T20:18:58.667Z,8.50
2023-04-24T20:21:25.353Z,8.50
2023-04-24T20:23:52.210Z,8.50
2023-04-24T20:26:18.921Z,8.60
2023-04-24T20:28:46.064Z,8.50
2023-04-24T20:31:12.838Z,8.60
2023-04-24T20:33:41.449Z,8.50
2023-04-24T20:36:09.501Z,8.60
2023-04-24T20:38:36.831Z,8.60
2023-04-24T20:41:03.802Z,8.50
2023-04-24T20:43:30.796Z,8.50
2023-04-24T20:46:00.368Z,8.50
2023-04-24T20:48:27.136Z,8.50
2023-04-24T20:50:54.153Z,8.60
2023-04-24T20:53:23.526Z,8.50
2023-04-24T20:55:50.712Z,8.50
2023-04-24T20:58:21.988Z,8.50
2023-04-24T21:00:48.764Z,8.40
2023-04-24T21:03:16.049Z,8.50
2023-04-24T21:05:42.873Z,8.50
2023-04-24T21:08:09.415Z,8.50
2023-04-24T21:10:36.529Z,8.50
2023-04-24T21:13:03.123Z,8.40
2023-04-24T21:15:30.893Z,8.40
2023-04-24T21:17:57.600Z,8.50
2023-04-24T21:20:24.345Z,8.50
2023-04-24T21:22:50.936Z,8.50
2023-04-24T21:25:17.631Z,8.40
2023-04-24T21:27:44.274Z,8.40
2023-04-24T21:30:12.782Z,8.40
2023-04-24T21:32:40.352Z,8.40
2023-04-24T21:35:07.347Z,8.40
2023-04-24T21:37:35.444Z,8.50
2023-04-24T21:40:04.604Z,8.50
2023-04-24T21:42:31.424Z,8.40
2023-04-24T21:44:58.361Z,8.40
2023-04-24T21:47:24.995Z,8.40
2023-04-24T21:49:51.925Z,8.40
2023-04-24T21:52:18.505Z,8.40
2023-04-24T21:54:47.055Z,8.40
2023-04-24T21:57:15.151Z,8.50
2023-04-24T21:59:42.106Z,8.50
2023-04-24T22:02:08.768Z,8.40
2023-04-24T22:04:35.611Z,8.40
2023-04-24T22:07:02.410Z,8.50
2023-04-24T22:09:29.030Z,8.50
2023-04-24T22:11:55.691Z,8.50
2023-04-24T22:14:22.321Z,8.50
2023-04-24T22:16:50.112Z,8.50
2023-04-24T22:19:16.716Z,8.60
2023-04-24T22:21:43.423Z,8.50
2023-04-24T22:24:10.208Z,8.50
2023-04-24T22:26:36.843Z,8.50
2023-04-24T22:29:03.422Z,8.50
2023-04-24T22:31:30.079Z,8.50
2023-04-24T22:33:56.675Z,8.50
2023-04-24T22:36:23.216Z,8.50
2023-04-24T22:38:49.789Z,8.50
2023-04-24T22:41:16.449Z,8.40
2023-04-24T22:43:43.029Z,8.40
2023-04-24T22:46:09.725Z,8.40
2023-04-24T22:48:36.409Z,8.40
2023-04-24T22:51:04.484Z,8.40
2023-04-24T22:53:31.127Z,8.40
2023-04-24T22:55:57.825Z,8.40
2023-04-24T22:58:25.188Z,8.30
2023-04-24T23:00:51.982Z,8.30
2023-04-24T23:03:18.771Z,8.40
2023-04-24T23:05:45.657Z,8.30
2023-04-24T23:08:12.269Z,8.30
2023-04-24T23:10:38.844Z,8.40
2023-04-24T23:13:06.084Z,8.40
2023-04-24T23:15:32.690Z,8.50
2023-04-24T23:17:59.318Z,8.50
2023-04-24T23:20:26.653Z,8.60
2023-04-24T23:22:53.236Z,8.50
2023-04-24T23:25:19.908Z,8.40
2023-04-24T23:27:46.476Z,8.50
2023-04-24T23:30:13.063Z,8.50
2023-04-24T23:32:39.914Z,8.40
2023-04-24T23:35:06.846Z,8.40
2023-04-24T23:37:33.476Z,8.40
2023-04-24T23:40:00.461Z,8.50
2023-04-24T23:42:26.985Z,8.40
2023-04-24T23:44:53.562Z,8.40
2023-04-24T23:47:20.166Z,8.30
2023-04-24T23:49:47.010Z,8.30
2023-04-24T23:52:13.639Z,8.20
2023-04-24T23:54:40.227Z,8.20
2023-04-24T23:57:06.854Z,8.30
2023-04-24T23:59:33.499Z,8.20
